sensor_id;sensor_type;location;lat;lon;timestamp;P1;durP1;ratioP1;P2;durP2;ratioP2
7475;SDS011;3779;49.216;8.650;2024-02-14T00:03:04;2.33;;;1.93;;
7475;SDS011;3779;49.216;8.650;2024-02-14T00:05:52;2.77;;;2.10;;
7475;SDS011;3779;49.216;8.650;2024-02-14T01:04:12;5.50;;;2.80;;
7475;SDS011;3779;49.216;8.650;2024-02-14T01:56:52;3.33;;;2.00;;
7475;SDS011;3779;49.216;8.650;2024-02-14T02:08:52;2.70;;;2.20;;
7475;SDS011;3779;49.216;8.650;2024-02-14T02:11:51;5.00;;;2.50;;
7475;SDS011;3779;49.216;8.650;2024-02-14T02:15:01;3.00;;;1.80;;
7475;SDS011;3779;49.216;8.650;2024-02-14T02:18:07;2.90;;;2.10;;
7475;SDS011;3779;49.216;8.650;2024-02-14T02:21:13;2.07;;;1.77;;
7475;SDS011;3779;49.216;8.650;2024-02-14T02:24:00;5.40;;;2.10;;
7475;SDS011;3779;49.216;8.650;2024-02-14T02:26:46;3.57;;;2.00;;
7475;SDS011;3779;49.216;8.650;2024-02-14T02:29:52;2.80;;;1.80;;
7475;SDS011;3779;49.216;8.650;2024-02-14T02:32:37;3.67;;;2.10;;
7475;SDS011;3779;49.216;8.650;2024-02-14T02:35:23;2.00;;;1.57;;
7475;SDS011;3779;49.216;8.650;2024-02-14T02:38:29;2.03;;;1.83;;
7475;SDS011;3779;49.216;8.650;2024-02-14T02:41:35;2.57;;;2.00;;
7475;SDS011;3779;49.216;8.650;2024-02-14T02:44:39;2.63;;;1.80;;
7475;SDS011;3779;49.216;8.650;2024-02-14T02:47:43;2.50;;;2.00;;
7475;SDS011;3779;49.216;8.650;2024-02-14T02:50:49;2.10;;;1.90;;
7475;SDS011;3779;49.216;8.650;2024-02-14T02:53:54;2.90;;;1.97;;
7475;SDS011;3779;49.216;8.650;2024-02-14T02:56:59;2.67;;;2.07;;
7475;SDS011;3779;49.216;8.650;2024-02-14T02:59:48;2.13;;;1.80;;
7475;SDS011;3779;49.216;8.650;2024-02-14T03:02:35;2.87;;;1.80;;
7475;SDS011;3779;49.216;8.650;2024-02-14T03:05:32;2.20;;;1.73;;
7475;SDS011;3779;49.216;8.650;2024-02-14T03:08:38;2.97;;;1.73;;
7475;SDS011;3779;49.216;8.650;2024-02-14T03:11:47;3.27;;;1.57;;
7475;SDS011;3779;49.216;8.650;2024-02-14T03:14:53;2.57;;;1.83;;
7475;SDS011;3779;49.216;8.650;2024-02-14T03:17:55;2.33;;;1.70;;
7475;SDS011;3779;49.216;8.650;2024-02-14T03:20:41;1.77;;;1.53;;
7475;SDS011;3779;49.216;8.650;2024-02-14T03:23:27;2.43;;;1.87;;
7475;SDS011;3779;49.216;8.650;2024-02-14T03:26:13;2.43;;;1.77;;
7475;SDS011;3779;49.216;8.650;2024-02-14T03:29:03;3.00;;;1.47;;
7475;SDS011;3779;49.216;8.650;2024-02-14T03:31:51;3.27;;;1.73;;
7475;SDS011;3779;49.216;8.650;2024-02-14T03:34:37;1.87;;;1.50;;
7475;SDS011;3779;49.216;8.650;2024-02-14T03:37:23;2.23;;;1.60;;
7475;SDS011;3779;49.216;8.650;2024-02-14T03:46:14;2.80;;;1.90;;
7475;SDS011;3779;49.216;8.650;2024-02-14T03:57:47;2.17;;;1.77;;
7475;SDS011;3779;49.216;8.650;2024-02-14T04:06:14;2.70;;;2.00;;
7475;SDS011;3779;49.216;8.650;2024-02-14T04:09:00;2.27;;;2.07;;
7475;SDS011;3779;49.216;8.650;2024-02-14T04:14:56;4.37;;;2.60;;
7475;SDS011;3779;49.216;8.650;2024-02-14T04:17:41;2.97;;;2.00;;
7475;SDS011;3779;49.216;8.650;2024-02-14T04:20:27;3.13;;;2.00;;
7475;SDS011;3779;49.216;8.650;2024-02-14T04:23:13;3.37;;;2.00;;
7475;SDS011;3779;49.216;8.650;2024-02-14T04:53:19;3.00;;;1.97;;
7475;SDS011;3779;49.216;8.650;2024-02-14T05:01:52;3.10;;;1.80;;
7475;SDS011;3779;49.216;8.650;2024-02-14T05:04:38;1.93;;;1.70;;
7475;SDS011;3779;49.216;8.650;2024-02-14T05:07:24;2.63;;;1.63;;
7475;SDS011;3779;49.216;8.650;2024-02-14T05:10:10;2.10;;;1.90;;
7475;SDS011;3779;49.216;8.650;2024-02-14T05:12:56;3.83;;;1.80;;
7475;SDS011;3779;49.216;8.650;2024-02-14T05:21:48;4.53;;;1.87;;
7475;SDS011;3779;49.216;8.650;2024-02-14T05:24:34;2.50;;;2.10;;
7475;SDS011;3779;49.216;8.650;2024-02-14T05:27:22;3.43;;;2.00;;
7475;SDS011;3779;49.216;8.650;2024-02-14T05:30:08;4.67;;;2.27;;
7475;SDS011;3779;49.216;8.650;2024-02-14T05:32:59;4.00;;;2.10;;
7475;SDS011;3779;49.216;8.650;2024-02-14T05:35:44;3.33;;;2.20;;
7475;SDS011;3779;49.216;8.650;2024-02-14T05:38:32;3.57;;;2.30;;
7475;SDS011;3779;49.216;8.650;2024-02-14T05:41:19;4.53;;;2.03;;
7475;SDS011;3779;49.216;8.650;2024-02-14T05:44:05;2.50;;;2.00;;
7475;SDS011;3779;49.216;8.650;2024-02-14T05:46:51;2.50;;;1.90;;
7475;SDS011;3779;49.216;8.650;2024-02-14T05:49:40;4.50;;;2.87;;
7475;SDS011;3779;49.216;8.650;2024-02-14T05:52:26;3.47;;;2.73;;
7475;SDS011;3779;49.216;8.650;2024-02-14T05:55:11;4.40;;;1.97;;
7475;SDS011;3779;49.216;8.650;2024-02-14T05:58:17;3.33;;;1.90;;
7475;SDS011;3779;49.216;8.650;2024-02-14T06:01:04;3.43;;;2.13;;
7475;SDS011;3779;49.216;8.650;2024-02-14T06:03:50;2.50;;;2.10;;
7475;SDS011;3779;49.216;8.650;2024-02-14T06:06:36;2.87;;;2.07;;
7475;SDS011;3779;49.216;8.650;2024-02-14T06:18:02;4.27;;;2.07;;
7475;SDS011;3779;49.216;8.650;2024-02-14T06:26:58;1.97;;;1.70;;
7475;SDS011;3779;49.216;8.650;2024-02-14T06:41:26;4.17;;;2.57;;
7475;SDS011;3779;49.216;8.650;2024-02-14T06:50:10;3.83;;;2.60;;
7475;SDS011;3779;49.216;8.650;2024-02-14T07:50:49;6.07;;;2.60;;
7475;SDS011;3779;49.216;8.650;2024-02-14T10:23:00;2.70;;;1.50;;
7475;SDS011;3779;49.216;8.650;2024-02-14T10:25:54;3.00;;;1.67;;
7475;SDS011;3779;49.216;8.650;2024-02-14T10:28:42;2.80;;;1.63;;
7475;SDS011;3779;49.216;8.650;2024-02-14T10:34:24;3.00;;;1.80;;
7475;SDS011;3779;49.216;8.650;2024-02-14T10:37:13;1.70;;;1.37;;
7475;SDS011;3779;49.216;8.650;2024-02-14T10:40:00;1.77;;;1.63;;
7475;SDS011;3779;49.216;8.650;2024-02-14T10:57:36;3.40;;;1.93;;
7475;SDS011;3779;49.216;8.650;2024-02-14T11:00:22;2.80;;;1.50;;
7475;SDS011;3779;49.216;8.650;2024-02-14T11:03:07;1.70;;;1.60;;
7475;SDS011;3779;49.216;8.650;2024-02-14T11:14:56;2.67;;;1.60;;
7475;SDS011;3779;49.216;8.650;2024-02-14T11:24:40;1.50;;;1.40;;
7475;SDS011;3779;49.216;8.650;2024-02-14T11:33:20;2.17;;;1.63;;
7475;SDS011;3779;49.216;8.650;2024-02-14T11:36:07;4.97;;;2.10;;
7475;SDS011;3779;49.216;8.650;2024-02-14T11:39:04;2.10;;;1.60;;
7475;SDS011;3779;49.216;8.650;2024-02-14T11:41:53;2.87;;;1.90;;
7475;SDS011;3779;49.216;8.650;2024-02-14T11:44:41;2.43;;;1.93;;
7475;SDS011;3779;49.216;8.650;2024-02-14T11:47:28;1.97;;;1.50;;
7475;SDS011;3779;49.216;8.650;2024-02-14T11:50:13;1.83;;;1.53;;
7475;SDS011;3779;49.216;8.650;2024-02-14T11:53:00;2.67;;;1.67;;
7475;SDS011;3779;49.216;8.650;2024-02-14T11:55:46;2.57;;;1.63;;
7475;SDS011;3779;49.216;8.650;2024-02-14T11:58:32;3.00;;;1.60;;
7475;SDS011;3779;49.216;8.650;2024-02-14T12:01:19;2.37;;;2.03;;
7475;SDS011;3779;49.216;8.650;2024-02-14T12:04:05;2.30;;;1.90;;
7475;SDS011;3779;49.216;8.650;2024-02-14T12:06:53;3.23;;;1.77;;
7475;SDS011;3779;49.216;8.650;2024-02-14T12:09:40;3.50;;;1.80;;
7475;SDS011;3779;49.216;8.650;2024-02-14T12:12:26;1.87;;;1.57;;
7475;SDS011;3779;49.216;8.650;2024-02-14T12:15:12;1.73;;;1.40;;
7475;SDS011;3779;49.216;8.650;2024-02-14T12:18:00;1.50;;;1.40;;
7475;SDS011;3779;49.216;8.650;2024-02-14T12:20:46;3.10;;;1.80;;
7475;SDS011;3779;49.216;8.650;2024-02-14T12:23:34;1.87;;;1.57;;
7475;SDS011;3779;49.216;8.650;2024-02-14T12:26:20;2.00;;;1.60;;
7475;SDS011;3779;49.216;8.650;2024-02-14T12:29:07;2.03;;;1.60;;
7475;SDS011;3779;49.216;8.650;2024-02-14T12:32:07;1.60;;;1.50;;
7475;SDS011;3779;49.216;8.650;2024-02-14T12:34:55;3.50;;;1.63;;
7475;SDS011;3779;49.216;8.650;2024-02-14T12:37:42;1.60;;;1.50;;
7475;SDS011;3779;49.216;8.650;2024-02-14T12:40:28;2.00;;;1.40;;
7475;SDS011;3779;49.216;8.650;2024-02-14T12:43:14;2.40;;;1.70;;
7475;SDS011;3779;49.216;8.650;2024-02-14T13:01:22;2.87;;;1.60;;
7475;SDS011;3779;49.216;8.650;2024-02-14T13:04:09;2.27;;;1.63;;
7475;SDS011;3779;49.216;8.650;2024-02-14T13:06:55;2.17;;;1.40;;
7475;SDS011;3779;49.216;8.650;2024-02-14T13:09:41;1.40;;;1.30;;
7475;SDS011;3779;49.216;8.650;2024-02-14T13:18:14;3.47;;;1.43;;
7475;SDS011;3779;49.216;8.650;2024-02-14T13:23:55;1.80;;;1.70;;
7475;SDS011;3779;49.216;8.650;2024-02-14T13:26:43;2.60;;;1.30;;
7475;SDS011;3779;49.216;8.650;2024-02-14T13:29:30;2.70;;;1.50;;
7475;SDS011;3779;49.216;8.650;2024-02-14T13:32:15;1.47;;;1.20;;
7475;SDS011;3779;49.216;8.650;2024-02-14T13:35:02;3.40;;;1.83;;
7475;SDS011;3779;49.216;8.650;2024-02-14T13:37:50;1.30;;;1.20;;
7475;SDS011;3779;49.216;8.650;2024-02-14T13:40:36;1.33;;;1.20;;
7475;SDS011;3779;49.216;8.650;2024-02-14T13:43:22;1.50;;;1.30;;
7475;SDS011;3779;49.216;8.650;2024-02-14T13:46:08;1.40;;;1.30;;
7475;SDS011;3779;49.216;8.650;2024-02-14T13:48:54;2.60;;;1.50;;
7475;SDS011;3779;49.216;8.650;2024-02-14T13:51:40;1.60;;;1.30;;
7475;SDS011;3779;49.216;8.650;2024-02-14T13:54:26;1.40;;;1.30;;
7475;SDS011;3779;49.216;8.650;2024-02-14T14:53:33;1.43;;;1.33;;
7475;SDS011;3779;49.216;8.650;2024-02-14T15:02:03;1.20;;;1.10;;
7475;SDS011;3779;49.216;8.650;2024-02-14T15:44:52;3.47;;;1.60;;
7475;SDS011;3779;49.216;8.650;2024-02-14T15:53:36;1.60;;;1.50;;
7475;SDS011;3779;49.216;8.650;2024-02-14T16:05:15;3.33;;;1.40;;
7475;SDS011;3779;49.216;8.650;2024-02-14T16:13:59;2.20;;;1.43;;
7475;SDS011;3779;49.216;8.650;2024-02-14T17:44:51;2.00;;;1.80;;
7475;SDS011;3779;49.216;8.650;2024-02-14T18:29:47;1.20;;;1.10;;
7475;SDS011;3779;49.216;8.650;2024-02-14T22:03:41;2.50;;;2.30;;
7475;SDS011;3779;49.216;8.650;2024-02-14T22:06:27;3.20;;;2.40;;
7475;SDS011;3779;49.216;8.650;2024-02-14T22:09:13;2.43;;;2.17;;
7475;SDS011;3779;49.216;8.650;2024-02-14T22:12:00;2.50;;;2.30;;
7475;SDS011;3779;49.216;8.650;2024-02-14T22:14:49;3.00;;;2.70;;
7475;SDS011;3779;49.216;8.650;2024-02-14T22:17:37;2.73;;;2.53;;
7475;SDS011;3779;49.216;8.650;2024-02-14T22:20:23;3.07;;;2.87;;
7475;SDS011;3779;49.216;8.650;2024-02-14T22:23:09;2.73;;;2.53;;
7475;SDS011;3779;49.216;8.650;2024-02-14T22:25:55;3.10;;;2.80;;
7475;SDS011;3779;49.216;8.650;2024-02-14T22:28:41;3.10;;;2.80;;
7475;SDS011;3779;49.216;8.650;2024-02-14T22:31:27;3.87;;;2.97;;
7475;SDS011;3779;49.216;8.650;2024-02-14T22:34:15;4.63;;;2.70;;
7475;SDS011;3779;49.216;8.650;2024-02-14T22:37:06;5.40;;;3.40;;
7475;SDS011;3779;49.216;8.650;2024-02-14T22:39:52;4.77;;;3.30;;
7475;SDS011;3779;49.216;8.650;2024-02-14T22:42:38;5.07;;;2.97;;
7475;SDS011;3779;49.216;8.650;2024-02-14T22:45:24;4.83;;;2.90;;
7475;SDS011;3779;49.216;8.650;2024-02-14T22:48:15;3.43;;;2.93;;
7475;SDS011;3779;49.216;8.650;2024-02-14T22:51:01;3.83;;;3.10;;
7475;SDS011;3779;49.216;8.650;2024-02-14T22:53:47;4.63;;;2.50;;
7475;SDS011;3779;49.216;8.650;2024-02-14T22:56:33;3.13;;;2.43;;
7475;SDS011;3779;49.216;8.650;2024-02-14T22:59:21;2.70;;;2.50;;
7475;SDS011;3779;49.216;8.650;2024-02-14T23:02:08;2.63;;;2.40;;
7475;SDS011;3779;49.216;8.650;2024-02-14T23:05:00;2.50;;;2.00;;
7475;SDS011;3779;49.216;8.650;2024-02-14T23:07:49;2.40;;;2.10;;
7475;SDS011;3779;49.216;8.650;2024-02-14T23:10:35;2.20;;;2.00;;
